sensor_id;sensor_type;location;lat;lon;timestamp;temperature;humidity
13944;DHT22;7044;53.286;8.534;2024-02-14T00:02:17;6.90;99.90
13944;DHT22;7044;53.286;8.534;2024-02-14T00:04:44;6.90;99.90
13944;DHT22;7044;53.286;8.534;2024-02-14T00:07:11;7.50;99.90
13944;DHT22;7044;53.286;8.534;2024-02-14T00:09:38;6.80;99.90
13944;DHT22;7044;53.286;8.534;2024-02-14T00:12:05;6.80;99.90
13944;DHT22;7044;53.286;8.534;2024-02-14T00:14:33;6.80;99.90
13944;DHT22;7044;53.286;8.534;2024-02-14T00:17:00;6.80;99.90
13944;DHT22;7044;53.286;8.534;2024-02-14T00:19:27;6.80;99.90
13944;DHT22;7044;53.286;8.534;2024-02-14T00:21:54;6.80;99.90
13944;DHT22;7044;53.286;8.534;2024-02-14T00:24:21;6.80;99.90
13944;DHT22;7044;53.286;8.534;2024-02-14T00:26:48;6.70;99.90
13944;DHT22;7044;53.286;8.534;2024-02-14T00:29:15;6.70;99.90
13944;DHT22;7044;53.286;8.534;2024-02-14T00:31:43;6.90;99.90
13944;DHT22;7044;53.286;8.534;2024-02-14T00:34:10;6.80;99.90
13944;DHT22;7044;53.286;8.534;2024-02-14T00:36:38;6.80;99.90
13944;DHT22;7044;53.286;8.534;2024-02-14T00:39:05;6.70;99.90
13944;DHT22;7044;53.286;8.534;2024-02-14T00:41:34;6.70;99.90
13944;DHT22;7044;53.286;8.534;2024-02-14T00:44:01;6.70;99.90
13944;DHT22;7044;53.286;8.534;2024-02-14T00:46:28;6.70;99.90
13944;DHT22;7044;53.286;8.534;2024-02-14T00:48:56;6.60;99.90
13944;DHT22;7044;53.286;8.534;2024-02-14T00:51:23;6.70;99.90
13944;DHT22;7044;53.286;8.534;2024-02-14T00:53:51;6.70;99.90
13944;DHT22;7044;53.286;8.534;2024-02-14T00:56:18;6.70;99.90
13944;DHT22;7044;53.286;8.534;2024-02-14T00:58:45;6.70;99.90
13944;DHT22;7044;53.286;8.534;2024-02-14T01:01:12;6.70;99.90
13944;DHT22;7044;53.286;8.534;2024-02-14T01:03:39;6.70;99.90
13944;DHT22;7044;53.286;8.534;2024-02-14T01:06:06;5.50;99.90
13944;DHT22;7044;53.286;8.534;2024-02-14T01:08:33;6.70;99.90
13944;DHT22;7044;53.286;8.534;2024-02-14T01:11:01;6.70;99.90
13944;DHT22;7044;53.286;8.534;2024-02-14T01:13:28;6.60;99.90
13944;DHT22;7044;53.286;8.534;2024-02-14T01:15:55;6.70;99.90
13944;DHT22;7044;53.286;8.534;2024-02-14T01:18:22;6.70;99.90
13944;DHT22;7044;53.286;8.534;2024-02-14T01:20:49;6.40;99.90
13944;DHT22;7044;53.286;8.534;2024-02-14T01:23:18;6.60;99.90
13944;DHT22;7044;53.286;8.534;2024-02-14T01:25:45;6.60;99.90
13944;DHT22;7044;53.286;8.534;2024-02-14T01:28:12;6.70;99.90
13944;DHT22;7044;53.286;8.534;2024-02-14T01:30:39;6.60;99.90
13944;DHT22;7044;53.286;8.534;2024-02-14T01:33:06;6.60;99.90
13944;DHT22;7044;53.286;8.534;2024-02-14T01:35:33;6.70;99.90
13944;DHT22;7044;53.286;8.534;2024-02-14T01:38:00;6.70;99.90
13944;DHT22;7044;53.286;8.534;2024-02-14T01:40:29;6.70;99.90
13944;DHT22;7044;53.286;8.534;2024-02-14T01:42:56;6.60;99.90
13944;DHT22;7044;53.286;8.534;2024-02-14T01:45:23;6.70;99.90
13944;DHT22;7044;53.286;8.534;2024-02-14T01:47:51;6.70;99.90
13944;DHT22;7044;53.286;8.534;2024-02-14T01:50:19;6.70;99.90
13944;DHT22;7044;53.286;8.534;2024-02-14T01:52:55;6.70;99.90
13944;DHT22;7044;53.286;8.534;2024-02-14T01:55:23;6.70;99.90
13944;DHT22;7044;53.286;8.534;2024-02-14T01:57:53;6.70;99.90
13944;DHT22;7044;53.286;8.534;2024-02-14T02:00:21;6.70;99.90
13944;DHT22;7044;53.286;8.534;2024-02-14T02:02:48;6.80;99.90
13944;DHT22;7044;53.286;8.534;2024-02-14T02:05:15;6.70;99.90
13944;DHT22;7044;53.286;8.534;2024-02-14T02:07:42;6.70;99.90
13944;DHT22;7044;53.286;8.534;2024-02-14T02:10:10;6.80;99.90
13944;DHT22;7044;53.286;8.534;2024-02-14T02:12:37;6.80;99.90
13944;DHT22;7044;53.286;8.534;2024-02-14T02:15:07;6.90;99.90
13944;DHT22;7044;53.286;8.534;2024-02-14T02:17:36;6.80;99.90
13944;DHT22;7044;53.286;8.534;2024-02-14T02:20:04;6.80;99.90
13944;DHT22;7044;53.286;8.534;2024-02-14T02:22:32;6.80;99.90
13944;DHT22;7044;53.286;8.534;2024-02-14T02:25:02;6.90;99.90
13944;DHT22;7044;53.286;8.534;2024-02-14T02:27:33;6.90;99.90
13944;DHT22;7044;53.286;8.534;2024-02-14T02:30:04;6.80;99.90
13944;DHT22;7044;53.286;8.534;2024-02-14T02:32:31;6.90;99.90
13944;DHT22;7044;53.286;8.534;2024-02-14T02:34:58;6.90;99.90
13944;DHT22;7044;53.286;8.534;2024-02-14T02:37:27;6.80;99.90
13944;DHT22;7044;53.286;8.534;2024-02-14T02:39:55;6.80;99.90
13944;DHT22;7044;53.286;8.534;2024-02-14T02:42:23;6.80;99.90
13944;DHT22;7044;53.286;8.534;2024-02-14T02:44:50;6.80;99.90
13944;DHT22;7044;53.286;8.534;2024-02-14T02:47:17;6.90;99.90
13944;DHT22;7044;53.286;8.534;2024-02-14T02:49:44;6.80;99.90
13944;DHT22;7044;53.286;8.534;2024-02-14T02:52:11;6.80;99.90
13944;DHT22;7044;53.286;8.534;2024-02-14T02:54:39;6.90;99.90
13944;DHT22;7044;53.286;8.534;2024-02-14T02:57:06;6.80;99.90
13944;DHT22;7044;53.286;8.534;2024-02-14T02:59:35;6.90;99.90
13944;DHT22;7044;53.286;8.534;2024-02-14T03:02:02;6.90;99.90
13944;DHT22;7044;53.286;8.534;2024-02-14T03:06:57;6.90;99.90
13944;DHT22;7044;53.286;8.534;2024-02-14T03:09:24;6.90;99.90
13944;DHT22;7044;53.286;8.534;2024-02-14T03:11:53;5.70;99.90
13944;DHT22;7044;53.286;8.534;2024-02-14T03:14:22;6.90;99.90
13944;DHT22;7044;53.286;8.534;2024-02-14T03:16:50;6.90;99.90
13944;DHT22;7044;53.286;8.534;2024-02-14T03:19:17;6.90;99.90
13944;DHT22;7044;53.286;8.534;2024-02-14T03:21:44;6.80;99.90
13944;DHT22;7044;53.286;8.534;2024-02-14T03:24:12;6.90;99.90
13944;DHT22;7044;53.286;8.534;2024-02-14T03:26:40;6.90;99.90
13944;DHT22;7044;53.286;8.534;2024-02-14T03:29:07;6.90;99.90
13944;DHT22;7044;53.286;8.534;2024-02-14T03:31:33;6.80;99.90
13944;DHT22;7044;53.286;8.534;2024-02-14T03:34:01;6.90;99.90
13944;DHT22;7044;53.286;8.534;2024-02-14T03:36:28;6.90;99.90
13944;DHT22;7044;53.286;8.534;2024-02-14T03:38:56;6.90;99.90
13944;DHT22;7044;53.286;8.534;2024-02-14T03:41:23;6.90;99.90
13944;DHT22;7044;53.286;8.534;2024-02-14T03:43:50;6.90;99.90
13944;DHT22;7044;53.286;8.534;2024-02-14T03:46:18;6.90;99.90
13944;DHT22;7044;53.286;8.534;2024-02-14T03:48:46;7.00;99.90
13944;DHT22;7044;53.286;8.534;2024-02-14T03:51:15;6.90;99.90
13944;DHT22;7044;53.286;8.534;2024-02-14T03:53:43;6.90;99.90
13944;DHT22;7044;53.286;8.534;2024-02-14T03:56:10;6.90;99.90
13944;DHT22;7044;53.286;8.534;2024-02-14T03:58:38;6.90;99.90
13944;DHT22;7044;53.286;8.534;2024-02-14T04:01:05;7.00;99.90
13944;DHT22;7044;53.286;8.534;2024-02-14T04:03:33;7.00;99.90
13944;DHT22;7044;53.286;8.534;2024-02-14T04:05:59;7.00;99.90
13944;DHT22;7044;53.286;8.534;2024-02-14T04:08:28;7.00;99.90
13944;DHT22;7044;53.286;8.534;2024-02-14T04:10:55;7.00;99.90
13944;DHT22;7044;53.286;8.534;2024-02-14T04:13:22;7.00;99.90
13944;DHT22;7044;53.286;8.534;2024-02-14T04:15:49;6.90;99.90
13944;DHT22;7044;53.286;8.534;2024-02-14T04:18:16;7.00;99.90
13944;DHT22;7044;53.286;8.534;2024-02-14T04:20:43;7.00;99.90
13944;DHT22;7044;53.286;8.534;2024-02-14T04:23:10;7.00;99.90
13944;DHT22;7044;53.286;8.534;2024-02-14T04:25:39;7.00;99.90
13944;DHT22;7044;53.286;8.534;2024-02-14T04:28:06;7.00;99.90
13944;DHT22;7044;53.286;8.534;2024-02-14T04:30:33;7.00;99.90
13944;DHT22;7044;53.286;8.534;2024-02-14T04:33:02;7.00;99.90
13944;DHT22;7044;53.286;8.534;2024-02-14T04:35:30;6.80;99.90
13944;DHT22;7044;53.286;8.534;2024-02-14T04:37:57;7.00;99.90
13944;DHT22;7044;53.286;8.534;2024-02-14T04:40:24;7.00;99.90
13944;DHT22;7044;53.286;8.534;2024-02-14T04:42:52;7.00;99.90
13944;DHT22;7044;53.286;8.534;2024-02-14T04:45:19;7.00;99.90
13944;DHT22;7044;53.286;8.534;2024-02-14T04:47:45;7.00;99.90
13944;DHT22;7044;53.286;8.534;2024-02-14T04:50:12;7.10;99.90
13944;DHT22;7044;53.286;8.534;2024-02-14T04:52:39;7.00;99.90
13944;DHT22;7044;53.286;8.534;2024-02-14T04:55:07;7.00;99.90
13944;DHT22;7044;53.286;8.534;2024-02-14T04:57:34;7.40;99.90
13944;DHT22;7044;53.286;8.534;2024-02-14T05:00:05;7.10;99.90
13944;DHT22;7044;53.286;8.534;2024-02-14T05:05:02;7.10;99.90
13944;DHT22;7044;53.286;8.534;2024-02-14T05:07:29;7.10;99.90
13944;DHT22;7044;53.286;8.534;2024-02-14T05:09:56;6.60;99.90
13944;DHT22;7044;53.286;8.534;2024-02-14T05:12:23;7.10;99.90
13944;DHT22;7044;53.286;8.534;2024-02-14T05:14:50;7.10;99.90
13944;DHT22;7044;53.286;8.534;2024-02-14T05:17:18;7.10;99.90
13944;DHT22;7044;53.286;8.534;2024-02-14T05:19:45;7.10;99.90
13944;DHT22;7044;53.286;8.534;2024-02-14T05:22:12;7.10;99.90
13944;DHT22;7044;53.286;8.534;2024-02-14T05:24:39;7.10;99.90
13944;DHT22;7044;53.286;8.534;2024-02-14T05:27:06;7.20;99.90
13944;DHT22;7044;53.286;8.534;2024-02-14T05:29:33;7.10;99.90
13944;DHT22;7044;53.286;8.534;2024-02-14T05:32:00;7.20;99.90
13944;DHT22;7044;53.286;8.534;2024-02-14T05:34:28;7.20;99.90
13944;DHT22;7044;53.286;8.534;2024-02-14T05:36:55;7.20;99.90
13944;DHT22;7044;53.286;8.534;2024-02-14T05:39:22;7.20;99.90
13944;DHT22;7044;53.286;8.534;2024-02-14T05:41:49;7.20;99.90
13944;DHT22;7044;53.286;8.534;2024-02-14T05:44:16;10.90;99.90
13944;DHT22;7044;53.286;8.534;2024-02-14T05:46:43;7.20;99.90
13944;DHT22;7044;53.286;8.534;2024-02-14T05:49:10;7.20;99.90
13944;DHT22;7044;53.286;8.534;2024-02-14T05:51:39;7.60;99.90
13944;DHT22;7044;53.286;8.534;2024-02-14T05:54:06;7.20;99.90
13944;DHT22;7044;53.286;8.534;2024-02-14T05:56:33;7.20;99.90
13944;DHT22;7044;53.286;8.534;2024-02-14T05:59:00;7.20;99.90
13944;DHT22;7044;53.286;8.534;2024-02-14T06:01:28;7.30;99.90
13944;DHT22;7044;53.286;8.534;2024-02-14T06:03:55;7.40;99.90
13944;DHT22;7044;53.286;8.534;2024-02-14T06:06:22;7.40;99.90
13944;DHT22;7044;53.286;8.534;2024-02-14T06:08:50;7.30;99.90
13944;DHT22;7044;53.286;8.534;2024-02-14T06:11:17;7.40;99.90
13944;DHT22;7044;53.286;8.534;2024-02-14T06:16:14;7.40;99.90
13944;DHT22;7044;53.286;8.534;2024-02-14T06:18:40;7.40;99.90
13944;DHT22;7044;53.286;8.534;2024-02-14T06:21:07;7.50;99.90
13944;DHT22;7044;53.286;8.534;2024-02-14T06:23:35;7.50;99.90
13944;DHT22;7044;53.286;8.534;2024-02-14T06:26:04;7.50;99.90
13944;DHT22;7044;53.286;8.534;2024-02-14T06:28:31;7.50;99.90
13944;DHT22;7044;53.286;8.534;2024-02-14T06:30:58;7.50;99.90
13944;DHT22;7044;53.286;8.534;2024-02-14T06:33:26;7.60;99.90
13944;DHT22;7044;53.286;8.534;2024-02-14T06:35:53;7.60;99.90
13944;DHT22;7044;53.286;8.534;2024-02-14T06:38:19;7.70;99.90
13944;DHT22;7044;53.286;8.534;2024-02-14T06:40:46;7.60;99.90
13944;DHT22;7044;53.286;8.534;2024-02-14T06:43:15;7.60;99.90
13944;DHT22;7044;53.286;8.534;2024-02-14T06:45:42;7.60;99.90
13944;DHT22;7044;53.286;8.534;2024-02-14T06:48:09;7.20;99.90
13944;DHT22;7044;53.286;8.534;2024-02-14T06:55:31;7.70;99.90
13944;DHT22;7044;53.286;8.534;2024-02-14T06:57:58;7.90;99.90
13944;DHT22;7044;53.286;8.534;2024-02-14T07:00:26;8.00;99.90
13944;DHT22;7044;53.286;8.534;2024-02-14T07:02:53;7.90;99.90
13944;DHT22;7044;53.286;8.534;2024-02-14T07:05:20;8.00;99.90
13944;DHT22;7044;53.286;8.534;2024-02-14T07:07:47;9.00;99.90
13944;DHT22;7044;53.286;8.534;2024-02-14T07:10:14;8.00;99.90
13944;DHT22;7044;53.286;8.534;2024-02-14T07:12:41;8.20;99.90
13944;DHT22;7044;53.286;8.534;2024-02-14T07:15:08;8.00;99.90
13944;DHT22;7044;53.286;8.534;2024-02-14T07:17:36;8.00;99.90
13944;DHT22;7044;53.286;8.534;2024-02-14T07:20:04;8.10;99.90
13944;DHT22;7044;53.286;8.534;2024-02-14T07:22:34;8.10;99.90
13944;DHT22;7044;53.286;8.534;2024-02-14T07:25:01;8.20;99.90
13944;DHT22;7044;53.286;8.534;2024-02-14T07:27:28;8.20;99.90
13944;DHT22;7044;53.286;8.534;2024-02-14T07:29:55;6.50;99.90
13944;DHT22;7044;53.286;8.534;2024-02-14T07:32:21;8.30;99.90
13944;DHT22;7044;53.286;8.534;2024-02-14T07:34:50;8.40;99.90
13944;DHT22;7044;53.286;8.534;2024-02-14T07:37:16;8.30;99.90
13944;DHT22;7044;53.286;8.534;2024-02-14T07:39:45;8.40;99.90
13944;DHT22;7044;53.286;8.534;2024-02-14T07:42:13;8.50;99.90
13944;DHT22;7044;53.286;8.534;2024-02-14T07:44:40;8.50;99.90
13944;DHT22;7044;53.286;8.534;2024-02-14T07:47:07;8.40;99.90
13944;DHT22;7044;53.286;8.534;2024-02-14T07:49:33;8.60;99.90
13944;DHT22;7044;53.286;8.534;2024-02-14T07:52:03;8.60;99.90
13944;DHT22;7044;53.286;8.534;2024-02-14T07:54:30;8.50;99.90
13944;DHT22;7044;53.286;8.534;2024-02-14T07:56:57;8.60;99.90
13944;DHT22;7044;53.286;8.534;2024-02-14T07:59:24;8.60;99.90
13944;DHT22;7044;53.286;8.534;2024-02-14T08:01:50;8.70;99.90
13944;DHT22;7044;53.286;8.534;2024-02-14T08:04:17;8.60;99.90
13944;DHT22;7044;53.286;8.534;2024-02-14T08:06:45;8.60;99.90
13944;DHT22;7044;53.286;8.534;2024-02-14T08:09:15;8.80;99.90
13944;DHT22;7044;53.286;8.534;2024-02-14T08:11:42;8.70;99.90
13944;DHT22;7044;53.286;8.534;2024-02-14T08:14:09;8.80;99.90
13944;DHT22;7044;53.286;8.534;2024-02-14T08:16:37;8.80;99.90
13944;DHT22;7044;53.286;8.534;2024-02-14T08:19:03;8.80;99.90
13944;DHT22;7044;53.286;8.534;2024-02-14T08:21:30;8.80;99.90
13944;DHT22;7044;53.286;8.534;2024-02-14T08:23:57;8.90;99.90
13944;DHT22;7044;53.286;8.534;2024-02-14T08:26:25;8.90;99.90
13944;DHT22;7044;53.286;8.534;2024-02-14T08:28:52;8.90;99.90
13944;DHT22;7044;53.286;8.534;2024-02-14T08:31:20;9.00;99.90
13944;DHT22;7044;53.286;8.534;2024-02-14T08:33:47;9.00;99.90
13944;DHT22;7044;53.286;8.534;2024-02-14T08:36:14;9.00;99.90
13944;DHT22;7044;53.286;8.534;2024-02-14T08:38:42;9.10;99.90
13944;DHT22;7044;53.286;8.534;2024-02-14T08:41:09;9.10;99.90
13944;DHT22;7044;53.286;8.534;2024-02-14T08:43:37;9.20;99.90
13944;DHT22;7044;53.286;8.534;2024-02-14T08:46:09;9.10;99.90
13944;DHT22;7044;53.286;8.534;2024-02-14T08:48:36;9.20;99.90
13944;DHT22;7044;53.286;8.534;2024-02-14T08:51:07;9.20;99.90
13944;DHT22;7044;53.286;8.534;2024-02-14T08:53:34;9.30;99.90
13944;DHT22;7044;53.286;8.534;2024-02-14T08:56:02;9.20;99.90
13944;DHT22;7044;53.286;8.534;2024-02-14T08:58:28;9.30;99.90
13944;DHT22;7044;53.286;8.534;2024-02-14T09:00:57;9.30;99.90
13944;DHT22;7044;53.286;8.534;2024-02-14T09:03:23;9.40;99.90
13944;DHT22;7044;53.286;8.534;2024-02-14T09:05:50;9.40;99.90
13944;DHT22;7044;53.286;8.534;2024-02-14T09:08:18;9.40;99.90
13944;DHT22;7044;53.286;8.534;2024-02-14T09:10:46;9.40;99.90
13944;DHT22;7044;53.286;8.534;2024-02-14T09:13:13;9.40;99.90
13944;DHT22;7044;53.286;8.534;2024-02-14T09:15:40;9.50;99.90
13944;DHT22;7044;53.286;8.534;2024-02-14T09:18:08;9.50;99.90
13944;DHT22;7044;53.286;8.534;2024-02-14T09:20:35;9.50;99.90
13944;DHT22;7044;53.286;8.534;2024-02-14T09:23:03;9.50;99.90
13944;DHT22;7044;53.286;8.534;2024-02-14T09:25:30;9.60;99.90
13944;DHT22;7044;53.286;8.534;2024-02-14T09:27:57;9.50;99.90
13944;DHT22;7044;53.286;8.534;2024-02-14T09:30:24;9.60;99.90
13944;DHT22;7044;53.286;8.534;2024-02-14T09:32:50;9.50;99.90
13944;DHT22;7044;53.286;8.534;2024-02-14T09:35:19;9.60;99.90
13944;DHT22;7044;53.286;8.534;2024-02-14T09:37:46;9.70;99.90
13944;DHT22;7044;53.286;8.534;2024-02-14T09:40:12;9.60;99.90
13944;DHT22;7044;53.286;8.534;2024-02-14T09:42:44;9.70;99.90
13944;DHT22;7044;53.286;8.534;2024-02-14T09:45:12;9.70;99.90
13944;DHT22;7044;53.286;8.534;2024-02-14T09:47:40;9.70;99.90
13944;DHT22;7044;53.286;8.534;2024-02-14T09:50:08;9.70;99.90
13944;DHT22;7044;53.286;8.534;2024-02-14T09:52:38;9.80;99.90
13944;DHT22;7044;53.286;8.534;2024-02-14T09:55:05;9.30;99.90
13944;DHT22;7044;53.286;8.534;2024-02-14T09:57:33;9.80;99.90
13944;DHT22;7044;53.286;8.534;2024-02-14T10:00:01;9.90;99.90
13944;DHT22;7044;53.286;8.534;2024-02-14T10:02:30;9.90;99.90
13944;DHT22;7044;53.286;8.534;2024-02-14T10:04:57;9.10;99.90
13944;DHT22;7044;53.286;8.534;2024-02-14T10:07:23;9.90;99.90
13944;DHT22;7044;53.286;8.534;2024-02-14T10:09:52;10.00;99.90
13944;DHT22;7044;53.286;8.534;2024-02-14T10:12:19;10.00;99.90
13944;DHT22;7044;53.286;8.534;2024-02-14T10:14:46;10.00;99.90
13944;DHT22;7044;53.286;8.534;2024-02-14T10:17:17;10.00;99.90
13944;DHT22;7044;53.286;8.534;2024-02-14T10:19:55;10.10;99.90
13944;DHT22;7044;53.286;8.534;2024-02-14T10:22:22;10.10;99.90
13944;DHT22;7044;53.286;8.534;2024-02-14T10:24:49;10.10;99.90
13944;DHT22;7044;53.286;8.534;2024-02-14T10:27:17;10.20;99.90
13944;DHT22;7044;53.286;8.534;2024-02-14T10:29:44;10.20;99.90
13944;DHT22;7044;53.286;8.534;2024-02-14T10:32:14;10.20;99.90
13944;DHT22;7044;53.286;8.534;2024-02-14T10:34:43;10.20;99.90
13944;DHT22;7044;53.286;8.534;2024-02-14T10:37:13;10.20;99.90
13944;DHT22;7044;53.286;8.534;2024-02-14T10:39:42;11.90;99.90
13944;DHT22;7044;53.286;8.534;2024-02-14T10:42:09;10.30;99.90
13944;DHT22;7044;53.286;8.534;2024-02-14T10:44:37;11.10;99.90
13944;DHT22;7044;53.286;8.534;2024-02-14T10:47:06;10.30;99.90
13944;DHT22;7044;53.286;8.534;2024-02-14T10:49:37;10.30;99.90
13944;DHT22;7044;53.286;8.534;2024-02-14T10:52:08;10.30;99.90
13944;DHT22;7044;53.286;8.534;2024-02-14T10:54:35;10.40;99.90
13944;DHT22;7044;53.286;8.534;2024-02-14T10:57:05;10.40;99.90
13944;DHT22;7044;53.286;8.534;2024-02-14T10:59:40;10.40;99.90
13944;DHT22;7044;53.286;8.534;2024-02-14T11:02:08;10.40;99.90
13944;DHT22;7044;53.286;8.534;2024-02-14T11:04:36;10.40;99.90
13944;DHT22;7044;53.286;8.534;2024-02-14T11:07:09;10.40;99.90
13944;DHT22;7044;53.286;8.534;2024-02-14T11:09:36;10.50;99.90
13944;DHT22;7044;53.286;8.534;2024-02-14T11:12:06;10.70;99.90
13944;DHT22;7044;53.286;8.534;2024-02-14T11:14:34;10.40;99.90
13944;DHT22;7044;53.286;8.534;2024-02-14T11:17:04;10.60;99.90
13944;DHT22;7044;53.286;8.534;2024-02-14T11:19:35;10.50;99.90
13944;DHT22;7044;53.286;8.534;2024-02-14T11:22:10;10.40;99.90
13944;DHT22;7044;53.286;8.534;2024-02-14T11:24:38;10.40;99.90
13944;DHT22;7044;53.286;8.534;2024-02-14T11:27:10;10.50;99.90
13944;DHT22;7044;53.286;8.534;2024-02-14T11:29:39;10.50;99.90
13944;DHT22;7044;53.286;8.534;2024-02-14T11:32:09;10.50;99.90
13944;DHT22;7044;53.286;8.534;2024-02-14T11:34:39;10.50;99.90
13944;DHT22;7044;53.286;8.534;2024-02-14T11:37:06;10.60;99.90
13944;DHT22;7044;53.286;8.534;2024-02-14T11:39:33;10.50;99.90
13944;DHT22;7044;53.286;8.534;2024-02-14T11:42:00;10.50;99.90
13944;DHT22;7044;53.286;8.534;2024-02-14T11:44:27;10.60;99.90
13944;DHT22;7044;53.286;8.534;2024-02-14T11:46:54;10.60;99.90
13944;DHT22;7044;53.286;8.534;2024-02-14T11:49:23;10.60;99.90
13944;DHT22;7044;53.286;8.534;2024-02-14T11:51:50;10.60;99.90
13944;DHT22;7044;53.286;8.534;2024-02-14T11:54:18;10.60;99.90
13944;DHT22;7044;53.286;8.534;2024-02-14T11:56:46;10.60;99.90
13944;DHT22;7044;53.286;8.534;2024-02-14T11:59:13;10.60;99.90
13944;DHT22;7044;53.286;8.534;2024-02-14T12:01:42;10.60;99.90
13944;DHT22;7044;53.286;8.534;2024-02-14T12:04:12;10.70;99.90
13944;DHT22;7044;53.286;8.534;2024-02-14T12:06:41;9.70;99.90
13944;DHT22;7044;53.286;8.534;2024-02-14T12:09:08;10.70;99.90
13944;DHT22;7044;53.286;8.534;2024-02-14T12:11:36;10.60;99.90
13944;DHT22;7044;53.286;8.534;2024-02-14T12:14:05;10.60;99.90
13944;DHT22;7044;53.286;8.534;2024-02-14T12:16:34;10.60;99.90
13944;DHT22;7044;53.286;8.534;2024-02-14T12:19:06;10.60;99.90
13944;DHT22;7044;53.286;8.534;2024-02-14T12:21:35;10.70;99.90
13944;DHT22;7044;53.286;8.534;2024-02-14T12:24:04;10.70;99.90
13944;DHT22;7044;53.286;8.534;2024-02-14T12:26:31;10.10;99.90
13944;DHT22;7044;53.286;8.534;2024-02-14T12:29:01;10.90;99.90
13944;DHT22;7044;53.286;8.534;2024-02-14T12:31:29;10.70;99.90
13944;DHT22;7044;53.286;8.534;2024-02-14T12:33:57;10.80;99.90
13944;DHT22;7044;53.286;8.534;2024-02-14T12:36:25;10.90;99.90
13944;DHT22;7044;53.286;8.534;2024-02-14T12:38:53;10.90;99.90
13944;DHT22;7044;53.286;8.534;2024-02-14T12:41:21;10.80;99.90
13944;DHT22;7044;53.286;8.534;2024-02-14T12:43:49;10.80;99.90
13944;DHT22;7044;53.286;8.534;2024-02-14T12:46:16;10.80;99.90
13944;DHT22;7044;53.286;8.534;2024-02-14T12:48:42;10.80;99.90
13944;DHT22;7044;53.286;8.534;2024-02-14T12:51:10;10.80;99.90
13944;DHT22;7044;53.286;8.534;2024-02-14T12:53:36;10.80;99.90
13944;DHT22;7044;53.286;8.534;2024-02-14T12:56:04;10.90;99.90
13944;DHT22;7044;53.286;8.534;2024-02-14T12:58:33;10.80;99.90
13944;DHT22;7044;53.286;8.534;2024-02-14T13:01:00;10.90;99.90
13944;DHT22;7044;53.286;8.534;2024-02-14T13:03:28;11.00;99.90
13944;DHT22;7044;53.286;8.534;2024-02-14T13:05:55;11.10;99.90
13944;DHT22;7044;53.286;8.534;2024-02-14T13:08:21;11.00;99.90
13944;DHT22;7044;53.286;8.534;2024-02-14T13:10:49;11.10;99.90
13944;DHT22;7044;53.286;8.534;2024-02-14T13:13:16;11.10;99.90
13944;DHT22;7044;53.286;8.534;2024-02-14T13:15:44;11.00;99.90
13944;DHT22;7044;53.286;8.534;2024-02-14T13:18:11;11.00;99.90
13944;DHT22;7044;53.286;8.534;2024-02-14T13:20:38;11.00;99.90
13944;DHT22;7044;53.286;8.534;2024-02-14T13:23:04;11.10;99.90
13944;DHT22;7044;53.286;8.534;2024-02-14T13:25:34;11.10;99.90
13944;DHT22;7044;53.286;8.534;2024-02-14T13:28:02;11.10;99.90
13944;DHT22;7044;53.286;8.534;2024-02-14T13:30:29;11.10;99.90
13944;DHT22;7044;53.286;8.534;2024-02-14T13:32:58;11.10;99.90
13944;DHT22;7044;53.286;8.534;2024-02-14T13:35:24;11.10;99.90
13944;DHT22;7044;53.286;8.534;2024-02-14T13:37:52;11.10;99.90
13944;DHT22;7044;53.286;8.534;2024-02-14T13:40:19;11.20;99.90
13944;DHT22;7044;53.286;8.534;2024-02-14T13:42:46;11.10;99.90
13944;DHT22;7044;53.286;8.534;2024-02-14T13:45:12;11.10;99.90
13944;DHT22;7044;53.286;8.534;2024-02-14T13:47:41;11.10;99.90
13944;DHT22;7044;53.286;8.534;2024-02-14T13:50:10;11.20;99.90
13944;DHT22;7044;53.286;8.534;2024-02-14T13:52:38;11.10;99.90
13944;DHT22;7044;53.286;8.534;2024-02-14T13:55:05;11.20;99.90
13944;DHT22;7044;53.286;8.534;2024-02-14T13:57:35;11.20;99.90
13944;DHT22;7044;53.286;8.534;2024-02-14T14:00:03;11.10;99.90
13944;DHT22;7044;53.286;8.534;2024-02-14T14:02:30;11.10;99.90
13944;DHT22;7044;53.286;8.534;2024-02-14T14:04:56;11.10;99.90
13944;DHT22;7044;53.286;8.534;2024-02-14T14:07:25;11.10;99.90
13944;DHT22;7044;53.286;8.534;2024-02-14T14:09:51;11.20;99.90
13944;DHT22;7044;53.286;8.534;2024-02-14T14:12:18;11.10;99.90
13944;DHT22;7044;53.286;8.534;2024-02-14T14:14:45;11.20;99.90
13944;DHT22;7044;53.286;8.534;2024-02-14T14:17:14;11.10;99.90
13944;DHT22;7044;53.286;8.534;2024-02-14T14:19:40;11.10;99.90
13944;DHT22;7044;53.286;8.534;2024-02-14T14:22:07;11.20;99.90
13944;DHT22;7044;53.286;8.534;2024-02-14T14:24:36;11.10;99.90
13944;DHT22;7044;53.286;8.534;2024-02-14T14:27:03;11.10;99.90
13944;DHT22;7044;53.286;8.534;2024-02-14T14:29:32;11.20;99.90
13944;DHT22;7044;53.286;8.534;2024-02-14T14:31:59;11.20;99.90
13944;DHT22;7044;53.286;8.534;2024-02-14T14:34:26;11.20;99.90
13944;DHT22;7044;53.286;8.534;2024-02-14T14:36:55;11.10;99.90
13944;DHT22;7044;53.286;8.534;2024-02-14T14:39:22;11.20;99.90
13944;DHT22;7044;53.286;8.534;2024-02-14T14:41:50;11.20;99.90
13944;DHT22;7044;53.286;8.534;2024-02-14T14:44:19;11.10;99.90
13944;DHT22;7044;53.286;8.534;2024-02-14T14:46:45;11.10;99.90
13944;DHT22;7044;53.286;8.534;2024-02-14T14:49:12;11.20;99.90
13944;DHT22;7044;53.286;8.534;2024-02-14T14:51:39;9.90;99.90
13944;DHT22;7044;53.286;8.534;2024-02-14T14:54:06;11.10;99.90
13944;DHT22;7044;53.286;8.534;2024-02-14T14:56:33;11.20;99.90
13944;DHT22;7044;53.286;8.534;2024-02-14T14:59:01;11.20;99.90
13944;DHT22;7044;53.286;8.534;2024-02-14T15:01:29;11.20;99.90
13944;DHT22;7044;53.286;8.534;2024-02-14T15:03:56;11.10;99.90
13944;DHT22;7044;53.286;8.534;2024-02-14T15:06:23;11.20;99.90
13944;DHT22;7044;53.286;8.534;2024-02-14T15:08:49;11.20;99.90
13944;DHT22;7044;53.286;8.534;2024-02-14T15:11:16;11.10;99.90
13944;DHT22;7044;53.286;8.534;2024-02-14T15:13:44;11.20;99.90
13944;DHT22;7044;53.286;8.534;2024-02-14T15:16:13;11.30;99.90
13944;DHT22;7044;53.286;8.534;2024-02-14T15:18:40;11.30;99.90
13944;DHT22;7044;53.286;8.534;2024-02-14T15:21:09;11.20;99.90
13944;DHT22;7044;53.286;8.534;2024-02-14T15:23:36;11.20;99.90
13944;DHT22;7044;53.286;8.534;2024-02-14T15:26:03;11.20;99.90
13944;DHT22;7044;53.286;8.534;2024-02-14T15:28:32;11.20;99.90
13944;DHT22;7044;53.286;8.534;2024-02-14T15:31:05;11.20;99.90
13944;DHT22;7044;53.286;8.534;2024-02-14T15:33:52;10.30;99.90
13944;DHT22;7044;53.286;8.534;2024-02-14T15:36:18;11.10;99.90
13944;DHT22;7044;53.286;8.534;2024-02-14T15:38:46;11.10;99.90
13944;DHT22;7044;53.286;8.534;2024-02-14T15:41:13;11.10;99.90
13944;DHT22;7044;53.286;8.534;2024-02-14T15:43:40;11.20;99.90
13944;DHT22;7044;53.286;8.534;2024-02-14T15:46:09;10.30;99.90
13944;DHT22;7044;53.286;8.534;2024-02-14T15:48:36;11.10;99.90
13944;DHT22;7044;53.286;8.534;2024-02-14T15:51:05;11.20;99.90
13944;DHT22;7044;53.286;8.534;2024-02-14T15:53:31;11.10;99.90
13944;DHT22;7044;53.286;8.534;2024-02-14T15:55:58;11.10;99.90
13944;DHT22;7044;53.286;8.534;2024-02-14T15:58:27;11.20;99.90
13944;DHT22;7044;53.286;8.534;2024-02-14T16:00:54;11.20;99.90
13944;DHT22;7044;53.286;8.534;2024-02-14T16:03:21;11.20;99.90
13944;DHT22;7044;53.286;8.534;2024-02-14T16:05:48;11.20;99.90
13944;DHT22;7044;53.286;8.534;2024-02-14T16:08:17;11.60;99.90
13944;DHT22;7044;53.286;8.534;2024-02-14T16:10:43;11.10;99.90